Dianna Rose — WEC4621 — position and weather

sailwx.info

Track history (hours):
 
Tides and Currents Weather Stations Pressure Air Temp Water Temp Dewpoint Dewpoint Depression Visibility Wind Speed Wind Dir Waves Ship Positions

Dianna Rose

Last reported at 2018-Jun-10 18:46 UTC. Time now 2018-Jun-18 22:45 UTC.
Position N 18°20' W 064°50'.
Warning: this ship's position is 8 days out of date.

Length 17 m.

MMSI: 378111924.

Date/timePositionNaut miles runAvg speedWind from/ knotsBaromVisibWave heightAir tempDewpointWater temp
2018-Jun-10 18:46N 18°20' W 064°50'3 0.7
2018-Jun-10 15:02N 18°22' W 064°48'0 0.1
2018-Jun-10 14:53N 18°22' W 064°48'2 5.7
2018-Jun-10 14:30N 18°24' W 064°47'3 0.2
2018-Jun-09 22:45N 18°26' W 064°45'1 0.2
2018-Jun-09 19:35N 18°27' W 064°46'0 0.0
2018-Jun-09 19:29N 18°27' W 064°46'0 0.0
2018-Jun-09 18:59N 18°27' W 064°46'0 0.0
2018-Jun-09 18:29N 18°27' W 064°46'0 0.0
2018-Jun-09 17:59N 18°27' W 064°46'0 0.1
2018-Jun-09 17:27N 18°27' W 064°46'3 5.7
2018-Jun-09 16:56N 18°27' W 064°43'0 0.0
2018-Jun-09 16:20N 18°27' W 064°43'0 0.0
2018-Jun-09 15:55N 18°27' W 064°43'3 3.5
2018-Jun-09 15:00N 18°27' W 064°39'0 0.0
2018-Jun-09 14:30N 18°27' W 064°39'0 0.0
2018-Jun-09 13:54N 18°27' W 064°39'0 0.0
2018-Jun-08 20:29N 18°27' W 064°39'  
2018-Jun-06 14:49N 18°25' W 064°31'1 3.2
2018-Jun-06 14:29N 18°24' W 064°32'2 3.2
2018-Jun-06 13:59N 18°25' W 064°34'6 0.1
2018-Jun-04 15:40N 18°22' W 064°40'1 2.7
2018-Jun-04 15:12N 18°23' W 064°41'0 2.5
2018-Jun-04 15:01N 18°23' W 064°41'1 1.7
2018-Jun-04 14:29N 18°23' W 064°42'1 1.2
2018-Jun-04 13:56N 18°23' W 064°42'1 1.2
2018-Jun-04 13:30N 18°23' W 064°43'  
Track history (hours):
 
Tides and Currents Weather Stations Pressure Air Temp Water Temp Dewpoint Dewpoint Depression Visibility Wind Speed Wind Dir Waves Ship Positions

Dianna Rose

Last reported at 2018-Jun-10 18:46 UTC. Time now 2018-Jun-18 22:45 UTC.
Position N 18°20' W 064°50'.
Warning: this ship's position is 8 days out of date.

Length 17 m.

MMSI: 378111924.

Date/timePositionNaut miles runAvg speedWind from/ knotsBaromVisibWave heightAir tempDewpointWater temp
2018-Jun-10 18:46N 18°20' W 064°50'3 0.7
2018-Jun-10 15:02N 18°22' W 064°48'0 0.1
2018-Jun-10 14:53N 18°22' W 064°48'2 5.7
2018-Jun-10 14:30N 18°24' W 064°47'3 0.2
2018-Jun-09 22:45N 18°26' W 064°45'1 0.2
2018-Jun-09 19:35N 18°27' W 064°46'0 0.0
2018-Jun-09 19:29N 18°27' W 064°46'0 0.0
2018-Jun-09 18:59N 18°27' W 064°46'0 0.0
2018-Jun-09 18:29N 18°27' W 064°46'0 0.0
2018-Jun-09 17:59N 18°27' W 064°46'0 0.1
2018-Jun-09 17:27N 18°27' W 064°46'3 5.7
2018-Jun-09 16:56N 18°27' W 064°43'0 0.0
2018-Jun-09 16:20N 18°27' W 064°43'0 0.0
2018-Jun-09 15:55N 18°27' W 064°43'3 3.5
2018-Jun-09 15:00N 18°27' W 064°39'0 0.0
2018-Jun-09 14:30N 18°27' W 064°39'0 0.0
2018-Jun-09 13:54N 18°27' W 064°39'0 0.0
2018-Jun-08 20:29N 18°27' W 064°39'  
2018-Jun-06 14:49N 18°25' W 064°31'1 3.2
2018-Jun-06 14:29N 18°24' W 064°32'2 3.2
2018-Jun-06 13:59N 18°25' W 064°34'6 0.1
2018-Jun-04 15:40N 18°22' W 064°40'1 2.7
2018-Jun-04 15:12N 18°23' W 064°41'0 2.5
2018-Jun-04 15:01N 18°23' W 064°41'1 1.7
2018-Jun-04 14:29N 18°23' W 064°42'1 1.2
2018-Jun-04 13:56N 18°23' W 064°42'1 1.2
2018-Jun-04 13:30N 18°23' W 064°43'  

Dump ship's entire track history